METAR - Iceland

Last updated 22.08.2017 - at. 18:32

SIGMET for the last six hours

No SIGMET messages last 6 hours.

METAR from the last three hours

AerodromeTimeMessage
BIAR2017-08-22 18.00METAR BIAR 221800Z 34011KT CAVOK 12/08 Q1020
BIAR2017-08-22 17.00METAR BIAR 221700Z 36011KT CAVOK 12/08 Q1020
BIAR2017-08-22 16.00METAR BIAR 221600Z 33012KT CAVOK 12/08 Q1021
BIBD2017-08-22 16.00METAR BIBD 221600Z 02006KT CAVOK 15/// Q1020
BIEG2017-08-22 18.00METAR BIEG 221800Z 01013KT CAVOK 13/07 Q1020
BIEG2017-08-22 17.00METAR BIEG 221700Z 01013KT CAVOK 13/07 Q1020
BIEG2017-08-22 16.00METAR BIEG 221600Z 36014KT CAVOK 14/07 Q1020
BIGR2017-08-22 16.00METAR BIGR 221600Z 05005KT CAVOK 12/07 Q1022
BIHU2017-08-22 16.00METAR BIHU 221600Z 36012KT 9999 FEW040 14/// Q1020
BIIS2017-08-22 18.00METAR BIIS 221800Z 06010KT CAVOK 11/07 Q1021
BIIS2017-08-22 17.00METAR BIIS 221700Z 05010KT CAVOK 11/06 Q1021
BIIS2017-08-22 16.00METAR BIIS 221600Z 05011KT 9999 FEW040 11/06 Q1021
BIKF2017-08-22 18.30METAR BIKF 221830Z 04005KT 010V070 9999 FEW028 SCT180 14/07 Q1019
BIKF2017-08-22 18.00METAR BIKF 221800Z 04006KT 010V070 9999 FEW028 SCT180 14/07 Q1019
BIKF2017-08-22 17.30METAR BIKF 221730Z 04004KT 360V080 9999 FEW032 SCT180 14/07 Q1019
BIKF2017-08-22 17.00METAR BIKF 221700Z 03004KT 340V090 9999 FEW036 SCT180 14/07 Q1019
BIKF2017-08-22 16.30METAR BIKF 221630Z 04006KT 360V080 9999 FEW036 SCT180 14/07 Q1019
BIKF2017-08-22 16.00METAR BIKF 221600Z 03006KT 340V070 9999 FEW036 SCT180 14/07 Q1019
BIRK2017-08-22 18.00METAR BIRK 221800Z 29008KT CAVOK 13/07 Q1019
BIRK2017-08-22 17.00METAR BIRK 221700Z 28009KT 9999 FEW037 SCT190 13/07 Q1019
BIRK2017-08-22 16.00METAR BIRK 221600Z 33010KT 9999 FEW035 BKN210 13/06 Q1019
BIVM2017-08-22 18.19METAR BIVM 221819Z 12018KT CAVOK 12/10 Q1018
BIVM2017-08-22 17.00METAR BIVM 221700Z 12018KT CAVOK 13/09 Q1018
BIVM2017-08-22 16.10METAR BIVM 221610Z 12017KT CAVOK 13/10 Q1018
BIVM2017-08-22 15.41METAR BIVM 221541Z 12018KT CAVOK 13/10 Q1018


Other related web sites


This website is built with Eplica CMS